createdAt,value
2017-06-03T00:01:02.765Z,80.60
2017-06-03T00:03:30.362Z,80.50
2017-06-03T00:05:57.953Z,80.60
2017-06-03T00:08:25.591Z,80.50
2017-06-03T00:10:53.185Z,80.50
2017-06-03T00:13:21.490Z,80.50
2017-06-03T00:15:49.086Z,80.70
2017-06-03T00:18:16.681Z,80.90
2017-06-03T00:20:44.790Z,81.00
2017-06-03T00:23:12.385Z,81.10
2017-06-03T00:25:39.983Z,81.10
2017-06-03T00:28:07.929Z,81.30
2017-06-03T00:30:35.538Z,81.40
2017-06-03T00:33:03.290Z,81.60
2017-06-03T00:35:35.909Z,82.00
2017-06-03T00:38:03.505Z,81.90
2017-06-03T00:40:31.106Z,82.10
2017-06-03T00:42:59.065Z,82.20
2017-06-03T00:45:27.425Z,82.40
2017-06-03T00:47:55.026Z,82.30
2017-06-03T00:50:22.666Z,82.50
2017-06-03T00:52:54.973Z,82.40
2017-06-03T00:55:22.568Z,82.40
2017-06-03T00:57:50.173Z,82.50
2017-06-03T01:00:17.946Z,82.60
2017-06-03T01:02:45.540Z,82.60
2017-06-03T01:05:13.173Z,82.50
2017-06-03T01:07:40.764Z,82.50
2017-06-03T01:10:08.685Z,82.50
2017-06-03T01:12:36.282Z,82.30
2017-06-03T01:15:03.877Z,82.30
2017-06-03T01:17:31.523Z,82.30
2017-06-03T01:19:59.112Z,82.90
2017-06-03T01:22:26.870Z,82.10
2017-06-03T01:24:54.465Z,81.90
2017-06-03T01:27:22.428Z,81.70
2017-06-03T01:29:50.028Z,81.60
2017-06-03T01:32:17.914Z,81.60
2017-06-03T01:34:45.930Z,81.70
2017-06-03T01:37:13.533Z,81.80
2017-06-03T01:39:41.129Z,81.80
2017-06-03T01:42:08.841Z,81.90
2017-06-03T01:44:36.437Z,82.00
2017-06-03T01:47:07.678Z,82.00
2017-06-03T01:49:35.362Z,82.10
2017-06-03T01:52:02.958Z,82.00
2017-06-03T01:54:30.554Z,82.20
2017-06-03T01:56:58.225Z,82.40
2017-06-03T01:59:25.817Z,82.40
2017-06-03T02:01:53.418Z,82.40
2017-06-03T02:04:21.490Z,82.50
2017-06-03T02:06:49.085Z,82.60
2017-06-03T02:09:16.633Z,82.80
2017-06-03T02:11:44.270Z,83.00
2017-06-03T02:14:11.865Z,83.10
2017-06-03T02:16:39.873Z,83.10
2017-06-03T02:19:07.471Z,83.10
2017-06-03T02:21:35.067Z,83.00
2017-06-03T02:24:07.231Z,82.90
2017-06-03T02:26:34.782Z,83.00
2017-06-03T02:29:02.420Z,83.00
2017-06-03T02:31:30.023Z,83.10
2017-06-03T02:33:57.759Z,83.00
2017-06-03T02:36:25.338Z,83.10
2017-06-03T02:38:52.927Z,83.10
2017-06-03T02:41:21.558Z,83.10
2017-06-03T02:43:49.146Z,83.10
2017-06-03T02:46:16.746Z,83.20
2017-06-03T02:48:44.383Z,83.30
2017-06-03T02:51:12.755Z,83.80
2017-06-03T02:53:40.934Z,83.40
2017-06-03T02:56:08.477Z,83.50
2017-06-03T02:58:36.021Z,83.50
2017-06-03T03:01:03.671Z,83.50
2017-06-03T03:03:31.217Z,83.50
2017-06-03T03:05:58.860Z,83.50
2017-06-03T03:08:26.487Z,83.50
2017-06-03T03:10:54.075Z,83.50
2017-06-03T03:13:22.394Z,83.50
2017-06-03T03:15:50.124Z,83.40
2017-06-03T03:18:17.677Z,83.40
2017-06-03T03:20:45.229Z,83.40
2017-06-03T03:23:12.901Z,83.50
2017-06-03T03:25:41.097Z,83.50
2017-06-03T03:28:08.686Z,83.50
2017-06-03T03:30:36.238Z,83.50
2017-06-03T03:33:04.110Z,83.50
2017-06-03T03:35:31.698Z,83.60
2017-06-03T03:37:59.308Z,83.60
2017-06-03T03:40:26.970Z,83.60
2017-06-03T03:42:54.560Z,83.70
2017-06-03T03:45:22.162Z,83.80
2017-06-03T03:47:49.817Z,83.90
2017-06-03T03:50:17.415Z,83.90
2017-06-03T03:52:45.021Z,83.90
2017-06-03T03:55:13.603Z,83.90
2017-06-03T03:57:41.197Z,84.00
2017-06-03T04:00:09.326Z,83.90
2017-06-03T04:02:36.877Z,83.80
2017-06-03T04:05:04.513Z,83.80
2017-06-03T04:07:32.107Z,83.80
2017-06-03T04:10:00.138Z,83.80
2017-06-03T04:12:27.741Z,83.70
2017-06-03T04:14:55.341Z,83.90
2017-06-03T04:17:24.046Z,84.20
2017-06-03T04:19:51.601Z,84.10
2017-06-03T04:22:20.829Z,84.20
2017-06-03T04:24:48.421Z,84.20
2017-06-03T04:27:16.014Z,84.10
2017-06-03T04:29:48.711Z,84.30
2017-06-03T04:32:16.311Z,84.20
2017-06-03T04:34:43.863Z,84.20
2017-06-03T04:37:11.723Z,84.20
2017-06-03T04:39:39.283Z,84.30
2017-06-03T04:42:06.924Z,84.30
2017-06-03T04:44:34.525Z,84.20
2017-06-03T04:47:02.165Z,84.30
2017-06-03T04:49:29.712Z,84.30
2017-06-03T04:51:57.357Z,84.30
2017-06-03T04:54:25.121Z,84.30
2017-06-03T04:56:57.818Z,84.30
2017-06-03T04:59:25.373Z,84.20
2017-06-03T05:01:53.683Z,84.40
2017-06-03T05:04:21.265Z,84.40
2017-06-03T05:06:48.897Z,84.40
2017-06-03T05:09:16.545Z,84.60
2017-06-03T05:11:44.093Z,84.70
2017-06-03T05:14:12.533Z,85.00
2017-06-03T05:16:40.082Z,84.90
2017-06-03T05:19:11.338Z,85.10
2017-06-03T05:21:38.882Z,85.00
2017-06-03T05:24:06.970Z,84.90
2017-06-03T05:26:34.561Z,84.90
2017-06-03T05:29:02.998Z,84.70
2017-06-03T05:31:30.790Z,84.70
2017-06-03T05:33:58.434Z,84.70
2017-06-03T05:36:25.979Z,84.70
2017-06-03T05:38:53.571Z,84.80
2017-06-03T05:41:21.290Z,84.90
2017-06-03T05:43:48.885Z,85.00
2017-06-03T05:46:16.493Z,84.90
2017-06-03T05:48:44.850Z,85.30
2017-06-03T05:51:12.582Z,85.30
2017-06-03T05:53:40.133Z,85.40
2017-06-03T05:56:08.010Z,85.30
2017-06-03T05:58:36.098Z,85.50
2017-06-03T06:01:03.694Z,85.50
2017-06-03T06:03:31.769Z,85.50
2017-06-03T06:05:59.321Z,85.60
2017-06-03T06:08:27.635Z,85.90
2017-06-03T06:10:55.343Z,85.70
2017-06-03T06:13:22.951Z,85.90
2017-06-03T06:15:50.501Z,85.80
2017-06-03T06:18:18.102Z,86.00
2017-06-03T06:20:45.647Z,86.10
2017-06-03T06:23:13.289Z,86.20
2017-06-03T06:25:41.407Z,86.30
2017-06-03T06:28:09.005Z,86.20
2017-06-03T06:30:37.321Z,85.90
2017-06-03T06:33:05.053Z,85.80
2017-06-03T06:35:32.653Z,85.80
2017-06-03T06:38:00.270Z,85.70
2017-06-03T06:40:28.630Z,85.60
2017-06-03T06:42:56.189Z,85.50
2017-06-03T06:45:23.924Z,85.70
2017-06-03T06:47:51.516Z,85.70
2017-06-03T06:50:19.882Z,85.50
2017-06-03T06:52:47.642Z,85.80
2017-06-03T06:55:15.421Z,85.80
2017-06-03T06:57:49.469Z,85.80
2017-06-03T07:00:25.364Z,85.60
2017-06-03T07:02:57.734Z,85.20
2017-06-03T07:05:33.970Z,84.70
2017-06-03T07:08:08.550Z,84.60
2017-06-03T07:10:44.361Z,84.50
2017-06-03T07:13:18.613Z,84.40
2017-06-03T07:15:56.035Z,84.20
2017-06-03T07:18:29.217Z,84.00
2017-06-03T07:21:03.954Z,84.00
2017-06-03T07:23:38.769Z,83.80
2017-06-03T07:26:14.766Z,82.90
2017-06-03T07:28:49.378Z,82.80
2017-06-03T07:31:31.870Z,82.50
2017-06-03T07:34:00.378Z,82.30
2017-06-03T07:36:35.733Z,82.20
2017-06-03T07:39:11.586Z,82.10
2017-06-03T07:41:46.038Z,81.90
2017-06-03T07:44:21.294Z,81.40
2017-06-03T07:46:56.263Z,81.10
2017-06-03T07:49:32.075Z,80.90
2017-06-03T07:52:05.426Z,80.80
2017-06-03T07:54:41.102Z,80.50
2017-06-03T07:57:15.804Z,80.30
2017-06-03T07:59:53.845Z,80.00
2017-06-03T08:02:28.493Z,79.30
2017-06-03T08:05:01.453Z,78.60
2017-06-03T08:07:36.248Z,78.30
2017-06-03T08:10:11.345Z,77.90
2017-06-03T08:12:45.306Z,77.40
2017-06-03T08:15:20.464Z,77.60
2017-06-03T08:18:02.923Z,77.80
2017-06-03T08:20:47.332Z,77.00
2017-06-03T08:23:25.291Z,77.00
2017-06-03T08:25:53.295Z,76.60
2017-06-03T08:28:20.868Z,75.80
2017-06-03T08:30:55.714Z,75.20
2017-06-03T08:33:30.231Z,75.00
2017-06-03T08:36:03.772Z,74.50
2017-06-03T08:38:44.106Z,73.80
2017-06-03T08:41:21.989Z,73.20
2017-06-03T08:43:53.162Z,72.50
2017-06-03T08:46:38.018Z,72.30
2017-06-03T08:49:14.331Z,72.20
2017-06-03T08:51:41.944Z,72.10
2017-06-03T08:54:10.623Z,72.30
2017-06-03T08:56:50.928Z,72.20
2017-06-03T08:59:19.166Z,72.00
2017-06-03T09:01:57.090Z,71.40
2017-06-03T09:04:30.013Z,70.70
2017-06-03T09:07:12.857Z,70.20
2017-06-03T09:09:48.837Z,70.00
2017-06-03T09:12:23.945Z,69.90
2017-06-03T09:14:59.767Z,69.40
2017-06-03T09:17:54.110Z,69.50
2017-06-03T09:23:15.241Z,68.50
2017-06-03T09:25:42.814Z,68.30
2017-06-03T09:28:16.786Z,68.30
2017-06-03T09:30:53.385Z,68.30
2017-06-03T09:33:25.903Z,68.00
2017-06-03T09:36:02.822Z,67.90
2017-06-03T09:38:36.926Z,67.60
2017-06-03T09:41:12.401Z,67.40
2017-06-03T09:43:46.390Z,67.10
2017-06-03T09:46:23.790Z,66.60
2017-06-03T09:48:59.224Z,65.90
2017-06-03T09:51:34.090Z,65.50
2017-06-03T09:54:07.521Z,64.80
2017-06-03T09:56:43.175Z,64.40
2017-06-03T09:59:20.774Z,64.20
2017-06-03T10:01:55.490Z,63.90
2017-06-03T10:04:30.950Z,63.20
2017-06-03T10:07:12.246Z,62.40
2017-06-03T10:15:19.398Z,61.80
2017-06-03T10:17:56.778Z,61.70
2017-06-03T10:20:30.525Z,61.50
2017-06-03T10:26:10.403Z,60.70
2017-06-03T10:28:53.165Z,60.70
2017-06-03T10:31:20.851Z,60.60
2017-06-03T10:36:34.000Z,60.50
2017-06-03T10:39:06.314Z,60.00
2017-06-03T10:41:38.156Z,59.50
2017-06-03T10:44:20.898Z,59.30
2017-06-03T10:46:56.549Z,59.30
2017-06-03T10:49:26.979Z,58.70
2017-06-03T10:52:02.833Z,58.20
2017-06-03T10:54:37.387Z,57.80
2017-06-03T11:03:01.858Z,56.70
2017-06-03T11:05:29.478Z,56.70
2017-06-03T11:07:57.123Z,56.50
2017-06-03T11:10:24.739Z,56.40
2017-06-03T11:12:52.895Z,56.00
2017-06-03T11:15:20.511Z,55.70
2017-06-03T11:17:48.124Z,55.70
2017-06-03T11:20:16.914Z,56.20
2017-06-03T11:22:44.486Z,55.70
2017-06-03T11:25:12.858Z,56.00
2017-06-03T11:27:40.461Z,55.90
2017-06-03T11:30:08.117Z,55.50
2017-06-03T11:32:35.773Z,55.00
2017-06-03T11:35:03.448Z,54.90
2017-06-03T11:37:31.648Z,55.00
2017-06-03T11:39:59.261Z,54.90
2017-06-03T11:42:27.615Z,54.20
2017-06-03T11:44:55.579Z,54.00
2017-06-03T11:47:23.200Z,53.90
2017-06-03T11:49:50.806Z,53.60
2017-06-03T11:52:18.569Z,53.30
2017-06-03T11:54:46.166Z,53.10
2017-06-03T11:57:13.727Z,53.40
2017-06-03T11:59:41.712Z,53.50
2017-06-03T12:02:09.318Z,53.30
2017-06-03T12:04:36.873Z,53.10
2017-06-03T12:07:05.829Z,52.60
2017-06-03T12:09:33.392Z,52.60
2017-06-03T12:12:00.953Z,52.50
2017-06-03T12:14:28.892Z,52.70
2017-06-03T12:16:57.254Z,53.00
2017-06-03T12:19:24.877Z,52.90
2017-06-03T12:21:52.499Z,53.30
2017-06-03T12:24:20.857Z,52.90
2017-06-03T12:26:49.735Z,53.10
2017-06-03T12:29:17.285Z,52.40
2017-06-03T12:31:44.845Z,51.60
2017-06-03T12:34:12.566Z,51.40
2017-06-03T12:36:40.992Z,51.20
2017-06-03T12:39:08.604Z,51.10
2017-06-03T12:41:36.166Z,51.00
2017-06-03T12:44:04.235Z,51.20
2017-06-03T12:46:31.810Z,51.30
2017-06-03T12:48:59.861Z,51.40
2017-06-03T12:51:27.434Z,51.50
2017-06-03T12:53:55.000Z,51.80
2017-06-03T12:56:23.185Z,52.40
2017-06-03T12:58:50.774Z,52.50
2017-06-03T13:01:18.338Z,51.40
2017-06-03T13:03:46.364Z,51.60
2017-06-03T13:06:14.431Z,52.00
2017-06-03T13:08:42.044Z,51.70
2017-06-03T13:11:09.652Z,51.70
2017-06-03T13:13:37.406Z,51.40
2017-06-03T13:16:04.962Z,51.40
2017-06-03T13:18:32.509Z,51.20
2017-06-03T13:21:00.616Z,50.80
2017-06-03T13:23:28.171Z,50.40
2017-06-03T13:25:55.775Z,50.30
2017-06-03T13:28:23.554Z,50.10
2017-06-03T13:30:51.159Z,49.50
2017-06-03T13:33:19.230Z,49.20
2017-06-03T13:35:46.845Z,48.90
2017-06-03T13:38:18.789Z,49.30
2017-06-03T13:40:46.502Z,49.50
2017-06-03T13:43:14.827Z,50.60
2017-06-03T13:45:42.410Z,50.60
2017-06-03T13:48:09.967Z,50.80
2017-06-03T13:50:37.937Z,51.00
2017-06-03T13:53:05.528Z,50.70
2017-06-03T13:55:43.182Z,50.30
2017-06-03T13:58:10.838Z,50.10
2017-06-03T14:00:38.383Z,49.60
2017-06-03T14:03:06.029Z,49.40
2017-06-03T14:05:33.623Z,49.20
2017-06-03T14:08:01.225Z,49.30
2017-06-03T14:10:28.865Z,49.60
2017-06-03T14:12:56.462Z,49.20
2017-06-03T14:15:24.821Z,49.40
2017-06-03T14:17:52.579Z,49.30
2017-06-03T14:20:20.123Z,48.90
2017-06-03T14:22:47.694Z,49.20
2017-06-03T14:25:17.029Z,49.10
2017-06-03T14:27:44.662Z,49.10
2017-06-03T14:30:12.284Z,49.00
2017-06-03T14:32:40.154Z,49.00
2017-06-03T14:35:13.002Z,48.80
2017-06-03T14:37:41.697Z,48.50
2017-06-03T14:40:13.887Z,48.00
2017-06-03T14:42:43.186Z,47.80
2017-06-03T14:48:22.628Z,49.40
2017-06-03T14:50:51.934Z,49.00
2017-06-03T14:53:22.637Z,49.70
2017-06-03T14:55:53.439Z,49.90
2017-06-03T14:58:21.151Z,49.80
2017-06-03T15:00:48.764Z,49.40
2017-06-03T15:03:16.358Z,49.70
2017-06-03T15:05:43.920Z,49.50
2017-06-03T15:08:11.696Z,48.90
2017-06-03T15:10:39.327Z,48.00
2017-06-03T15:13:12.103Z,47.40
2017-06-03T15:15:39.651Z,47.10
2017-06-03T15:18:07.270Z,46.80
2017-06-03T15:20:35.006Z,46.80
2017-06-03T15:23:03.002Z,46.20
2017-06-03T15:25:30.654Z,45.80
2017-06-03T15:27:58.278Z,45.80
2017-06-03T15:30:26.434Z,46.30
2017-06-03T15:32:54.095Z,46.70
2017-06-03T15:35:21.679Z,46.90
2017-06-03T15:37:49.365Z,46.90
2017-06-03T15:40:18.301Z,46.80
2017-06-03T15:42:45.882Z,46.70
2017-06-03T15:45:13.460Z,46.60
2017-06-03T15:47:41.172Z,46.60
2017-06-03T15:50:09.532Z,47.50
2017-06-03T15:52:37.128Z,47.40
2017-06-03T15:55:04.674Z,47.90
2017-06-03T15:57:33.133Z,47.90
2017-06-03T16:00:00.678Z,47.80
2017-06-03T16:02:28.614Z,47.80
2017-06-03T16:04:56.203Z,48.00
2017-06-03T16:07:23.790Z,48.00
2017-06-03T16:09:52.198Z,48.70
2017-06-03T16:12:23.478Z,48.70
2017-06-03T16:14:52.001Z,49.30
2017-06-03T16:17:19.616Z,49.90
2017-06-03T16:20:07.135Z,50.40
2017-06-03T16:22:36.584Z,50.60
2017-06-03T16:25:04.191Z,51.10
2017-06-03T16:27:51.509Z,51.20
2017-06-03T16:30:33.677Z,51.60
2017-06-03T16:33:01.309Z,51.90
2017-06-03T16:35:36.373Z,52.30
2017-06-03T16:38:09.591Z,52.30
2017-06-03T16:40:47.525Z,52.20
2017-06-03T16:43:25.494Z,52.10
2017-06-03T16:45:53.069Z,52.10
2017-06-03T16:48:20.629Z,52.20
2017-06-03T16:51:03.690Z,52.40
2017-06-03T16:53:32.038Z,52.90
2017-06-03T16:55:59.669Z,52.90
2017-06-03T16:58:27.299Z,53.80
2017-06-03T17:00:54.887Z,53.60
2017-06-03T17:03:22.970Z,53.60
2017-06-03T17:06:07.342Z,53.80
2017-06-03T17:08:35.222Z,54.10
2017-06-03T17:11:02.784Z,54.10
2017-06-03T17:13:30.559Z,54.30
2017-06-03T17:16:05.816Z,54.60
2017-06-03T17:18:53.411Z,55.00
2017-06-03T17:24:21.016Z,55.60
2017-06-03T17:26:56.299Z,55.70
2017-06-03T17:29:23.950Z,55.70
2017-06-03T17:31:52.302Z,56.30
2017-06-03T17:34:19.921Z,56.20
2017-06-03T17:36:54.690Z,56.40
2017-06-03T17:39:22.322Z,56.70
2017-06-03T17:41:50.251Z,56.90
2017-06-03T17:44:23.939Z,56.90
2017-06-03T17:46:51.574Z,57.00
2017-06-03T17:49:19.906Z,57.60
2017-06-03T17:51:47.522Z,57.10
2017-06-03T17:54:15.901Z,57.30
2017-06-03T17:56:43.455Z,57.20
2017-06-03T17:59:11.362Z,57.20
2017-06-03T18:01:38.961Z,57.30
2017-06-03T18:04:26.302Z,57.00
2017-06-03T18:06:54.009Z,57.00
2017-06-03T18:09:21.565Z,56.80
2017-06-03T18:11:49.215Z,56.60
2017-06-03T18:14:16.795Z,56.70
2017-06-03T18:16:45.345Z,57.00
2017-06-03T18:19:16.747Z,57.00
2017-06-03T18:21:47.886Z,57.10
2017-06-03T18:24:18.768Z,57.10
2017-06-03T18:26:47.677Z,57.20
2017-06-03T18:29:15.333Z,57.50
2017-06-03T18:31:42.940Z,57.50
2017-06-03T18:34:10.881Z,57.70
2017-06-03T18:36:38.901Z,57.70
2017-06-03T18:39:06.458Z,57.70
2017-06-03T18:41:34.681Z,57.90
2017-06-03T18:44:02.303Z,58.00
2017-06-03T18:46:29.837Z,58.20
2017-06-03T18:48:58.206Z,58.40
2017-06-03T18:51:25.931Z,58.40
2017-06-03T18:53:53.560Z,58.40
2017-06-03T18:56:22.725Z,58.50
2017-06-03T18:58:53.456Z,58.60
2017-06-03T19:01:21.005Z,58.50
2017-06-03T19:03:56.470Z,58.30
2017-06-03T19:06:24.085Z,58.40
2017-06-03T19:08:51.854Z,58.40
2017-06-03T19:11:19.446Z,58.40
2017-06-03T19:13:47.166Z,58.50
2017-06-03T19:16:14.773Z,58.70
2017-06-03T19:18:42.426Z,58.80
2017-06-03T19:21:10.016Z,59.00
2017-06-03T19:23:38.339Z,59.50
2017-06-03T19:26:06.361Z,59.50
2017-06-03T19:28:34.680Z,60.10
2017-06-03T19:31:02.235Z,60.00
2017-06-03T19:33:30.045Z,60.50
2017-06-03T19:35:58.054Z,61.00
2017-06-03T19:38:25.808Z,61.20
2017-06-03T19:40:53.370Z,61.50
2017-06-03T19:43:21.899Z,62.20
2017-06-03T19:45:49.586Z,62.10
2017-06-03T19:48:17.156Z,62.40
2017-06-03T19:50:45.221Z,62.60
2017-06-03T19:53:12.812Z,63.00
2017-06-03T19:55:40.430Z,63.40
2017-06-03T19:58:08.054Z,63.50
2017-06-03T20:00:35.677Z,63.60
2017-06-03T20:03:06.874Z,63.90
2017-06-03T20:05:34.478Z,63.70
2017-06-03T20:13:48.055Z,63.70
2017-06-03T20:16:15.803Z,63.40
2017-06-03T20:18:43.379Z,63.30
2017-06-03T20:21:20.923Z,63.30
2017-06-03T20:23:52.142Z,63.30
2017-06-03T20:26:19.717Z,63.40
2017-06-03T20:28:47.282Z,63.50
2017-06-03T20:31:14.955Z,63.40
2017-06-03T20:33:42.721Z,63.40
2017-06-03T20:36:10.327Z,63.30
2017-06-03T20:38:38.899Z,64.10
2017-06-03T20:41:06.644Z,63.30
2017-06-03T20:49:17.183Z,63.70
2017-06-03T20:51:45.613Z,63.20
2017-06-03T20:54:13.177Z,63.10
2017-06-03T20:56:41.415Z,63.30
2017-06-03T20:59:12.054Z,63.60
2017-06-03T21:01:39.675Z,63.70
2017-06-03T21:04:07.631Z,63.90
2017-06-03T21:06:35.194Z,64.30
2017-06-03T21:09:02.802Z,64.40
2017-06-03T21:11:30.417Z,64.30
2017-06-03T21:13:58.109Z,64.20
2017-06-03T21:16:28.258Z,64.30
2017-06-03T21:18:55.906Z,64.30
2017-06-03T21:21:25.330Z,64.40
2017-06-03T21:23:54.306Z,64.60
2017-06-03T21:26:25.177Z,64.60
2017-06-03T21:28:56.271Z,65.00
2017-06-03T21:31:26.170Z,65.20
2017-06-03T21:33:59.510Z,65.50
2017-06-03T21:36:30.693Z,65.70
2017-06-03T21:39:02.055Z,66.30
2017-06-03T21:41:29.650Z,66.80
2017-06-03T21:44:03.853Z,67.20
2017-06-03T21:46:37.451Z,68.40
2017-06-03T21:49:05.405Z,68.90
2017-06-03T21:51:34.291Z,69.40
2017-06-03T21:57:00.310Z,70.40
2017-06-03T21:59:28.069Z,70.50
2017-06-03T22:04:56.739Z,71.40
2017-06-03T22:07:28.137Z,71.70
2017-06-03T22:09:58.764Z,71.80
2017-06-03T22:12:27.933Z,71.90
2017-06-03T22:17:51.361Z,72.50
2017-06-03T22:20:22.025Z,72.90
2017-06-03T22:22:52.984Z,74.00
2017-06-03T22:25:21.918Z,73.40
2017-06-03T22:27:53.059Z,73.30
2017-06-03T22:30:23.586Z,73.40
2017-06-03T22:32:54.745Z,73.60
2017-06-03T22:35:25.222Z,73.80
2017-06-03T22:37:54.082Z,74.20
2017-06-03T22:40:23.150Z,74.00
2017-06-03T22:42:53.785Z,74.30
2017-06-03T22:45:27.558Z,74.40
2017-06-03T22:47:58.227Z,74.60
2017-06-03T22:50:32.382Z,74.90
2017-06-03T22:53:17.137Z,75.20
2017-06-03T22:55:48.821Z,75.20
2017-06-03T22:58:19.473Z,75.50
2017-06-03T23:00:51.097Z,75.80
2017-06-03T23:03:22.371Z,75.80
2017-06-03T23:05:53.289Z,75.90
2017-06-03T23:08:24.342Z,75.90
2017-06-03T23:10:54.962Z,75.90
2017-06-03T23:13:25.917Z,76.20
2017-06-03T23:15:54.742Z,76.30
2017-06-03T23:18:25.768Z,76.60
2017-06-03T23:21:01.663Z,76.90
2017-06-03T23:23:32.334Z,77.00
2017-06-03T23:26:03.379Z,77.40
2017-06-03T23:28:34.165Z,77.40
2017-06-03T23:31:08.315Z,77.50
2017-06-03T23:33:38.829Z,77.50
2017-06-03T23:36:09.797Z,77.60
2017-06-03T23:38:40.482Z,77.80
2017-06-03T23:41:11.670Z,78.00
2017-06-03T23:43:40.394Z,77.90
2017-06-03T23:46:09.262Z,78.10
2017-06-03T23:48:40.422Z,78.00
2017-06-03T23:51:11.757Z,78.10
2017-06-03T23:53:42.570Z,78.40
2017-06-03T23:56:13.346Z,78.40
2017-06-03T23:58:43.057Z,78.40
